createdAt,value
2023-03-03T00:00:29.041Z,80.95
2023-03-03T00:02:59.210Z,80.86
2023-03-03T00:05:27.257Z,80.72
2023-03-03T00:07:55.094Z,80.74
2023-03-03T00:10:24.603Z,80.36
2023-03-03T00:12:52.598Z,80.06
2023-03-03T00:15:22.456Z,80.30
2023-03-03T00:17:50.411Z,80.02
2023-03-03T00:20:30.759Z,79.79
2023-03-03T00:23:00.178Z,79.94
2023-03-03T00:25:32.387Z,79.77
2023-03-03T00:28:03.354Z,79.80
2023-03-03T00:30:31.150Z,80.05
2023-03-03T00:32:58.934Z,79.89
2023-03-03T00:35:28.772Z,79.79
2023-03-03T00:37:58.086Z,79.79
2023-03-03T00:40:26.809Z,79.57
2023-03-03T00:42:57.940Z,79.81
2023-03-03T00:45:29.667Z,79.70
2023-03-03T00:47:58.036Z,79.51
2023-03-03T00:50:35.805Z,79.08
2023-03-03T00:53:06.396Z,79.06
2023-03-03T00:55:36.020Z,78.73
2023-03-03T00:58:05.345Z,78.90
2023-03-03T01:00:34.297Z,78.95
2023-03-03T01:03:04.665Z,79.01
2023-03-03T01:05:32.482Z,78.99
2023-03-03T01:08:00.631Z,78.74
2023-03-03T01:10:29.887Z,79.11
2023-03-03T01:12:58.505Z,80.25
2023-03-03T01:15:27.722Z,80.09
2023-03-03T01:17:56.147Z,79.83
2023-03-03T01:20:24.205Z,79.83
2023-03-03T01:22:52.004Z,79.71
2023-03-03T01:25:19.777Z,79.70
2023-03-03T01:27:47.702Z,80.00
2023-03-03T01:30:16.413Z,79.65
2023-03-03T01:32:45.700Z,79.72
2023-03-03T01:35:13.890Z,79.90
2023-03-03T01:37:41.992Z,79.81
2023-03-03T01:40:14.980Z,79.87
2023-03-03T01:42:42.843Z,79.83
2023-03-03T01:45:22.025Z,79.58
2023-03-03T01:47:54.104Z,79.53
2023-03-03T01:50:43.568Z,79.46
2023-03-03T01:53:17.141Z,79.58
2023-03-03T01:55:45.811Z,79.69
2023-03-03T01:58:17.753Z,79.65
2023-03-03T02:00:48.044Z,79.45
2023-03-03T02:03:17.580Z,79.11
2023-03-03T02:05:45.358Z,79.28
2023-03-03T02:08:16.492Z,79.37
2023-03-03T02:10:46.439Z,79.23
2023-03-03T02:13:14.475Z,79.26
2023-03-03T02:15:42.378Z,79.09
2023-03-03T02:18:12.886Z,79.11
2023-03-03T02:20:50.156Z,79.00
2023-03-03T02:23:24.029Z,78.78
2023-03-03T02:26:05.639Z,79.29
2023-03-03T02:28:35.157Z,78.80
2023-03-03T02:31:03.822Z,78.94
2023-03-03T02:33:31.601Z,79.01
2023-03-03T02:35:59.444Z,78.95
2023-03-03T02:38:30.870Z,79.13
2023-03-03T02:41:06.531Z,78.61
2023-03-03T02:43:38.700Z,78.51
2023-03-03T02:46:06.648Z,78.38
2023-03-03T02:48:34.500Z,78.75
2023-03-03T02:51:02.401Z,78.78
2023-03-03T02:53:30.163Z,78.49
2023-03-03T02:55:57.910Z,79.33
2023-03-03T02:58:27.057Z,79.10
2023-03-03T03:00:55.624Z,78.98
2023-03-03T03:03:23.562Z,78.70
2023-03-03T03:05:51.387Z,78.72
2023-03-03T03:08:19.147Z,78.33
2023-03-03T03:10:47.181Z,78.76
2023-03-03T03:13:15.171Z,79.03
2023-03-03T03:15:46.895Z,78.70
2023-03-03T03:18:14.760Z,78.74
2023-03-03T03:20:42.545Z,78.50
2023-03-03T03:23:10.941Z,78.33
2023-03-03T03:25:45.087Z,78.25
2023-03-03T03:28:13.395Z,78.26
2023-03-03T03:30:41.835Z,78.14
2023-03-03T03:33:11.224Z,78.40
2023-03-03T03:35:40.406Z,78.20
2023-03-03T03:38:08.299Z,78.05
2023-03-03T03:40:36.094Z,78.28
2023-03-03T03:43:03.904Z,78.67
2023-03-03T03:45:31.693Z,78.68
2023-03-03T03:47:59.702Z,78.48
2023-03-03T03:50:28.867Z,78.58
2023-03-03T03:52:56.654Z,78.67
2023-03-03T03:55:24.428Z,78.58
2023-03-03T03:57:52.198Z,78.40
2023-03-03T04:00:20.279Z,78.45
2023-03-03T04:02:48.194Z,78.00
2023-03-03T04:05:16.040Z,78.20
2023-03-03T04:07:45.570Z,77.98
2023-03-03T04:10:13.525Z,78.03
2023-03-03T04:12:41.716Z,77.79
2023-03-03T04:15:12.417Z,77.96
2023-03-03T04:17:40.424Z,78.23
2023-03-03T04:20:09.626Z,78.19
2023-03-03T04:22:37.385Z,78.27
2023-03-03T04:25:08.006Z,78.33
2023-03-03T04:27:36.375Z,78.19
2023-03-03T04:30:06.300Z,78.16
2023-03-03T04:32:34.822Z,77.84
2023-03-03T04:35:08.080Z,78.14
2023-03-03T04:37:37.661Z,78.03
2023-03-03T04:40:08.694Z,78.35
2023-03-03T04:42:36.671Z,78.19
2023-03-03T04:45:05.804Z,78.32
2023-03-03T04:47:33.802Z,78.29
2023-03-03T04:50:01.857Z,78.05
2023-03-03T04:52:29.934Z,78.17
2023-03-03T04:54:57.906Z,78.40
2023-03-03T04:57:27.167Z,78.29
2023-03-03T04:59:54.997Z,78.61
2023-03-03T05:02:22.822Z,78.45
2023-03-03T05:04:50.676Z,79.00
2023-03-03T05:07:19.963Z,79.07
2023-03-03T05:09:47.754Z,79.19
2023-03-03T05:12:15.845Z,79.15
2023-03-03T05:14:45.567Z,78.91
2023-03-03T05:17:13.422Z,78.96
2023-03-03T05:19:41.531Z,78.75
2023-03-03T05:22:10.373Z,78.87
2023-03-03T05:24:38.153Z,78.79
2023-03-03T05:27:05.899Z,78.89
2023-03-03T05:29:33.736Z,79.19
2023-03-03T05:32:02.956Z,78.97
2023-03-03T05:34:30.827Z,78.93
2023-03-03T05:36:58.647Z,78.59
2023-03-03T05:39:26.397Z,78.70
2023-03-03T05:41:54.749Z,79.23
2023-03-03T05:44:22.621Z,79.01
2023-03-03T05:46:50.513Z,79.51
2023-03-03T05:49:19.906Z,79.29
2023-03-03T05:51:47.692Z,78.96
2023-03-03T05:54:16.053Z,78.88
2023-03-03T05:56:43.812Z,79.04
2023-03-03T05:59:11.610Z,79.16
2023-03-03T06:01:39.444Z,78.95
2023-03-03T06:04:07.370Z,79.60
2023-03-03T06:06:36.589Z,79.12
2023-03-03T06:09:05.057Z,79.08
2023-03-03T06:11:32.857Z,79.00
2023-03-03T06:14:00.722Z,79.25
2023-03-03T06:16:28.947Z,79.64
2023-03-03T06:18:56.821Z,79.25
2023-03-03T06:21:24.612Z,79.60
2023-03-03T06:23:53.736Z,79.07
2023-03-03T06:26:21.784Z,78.89
2023-03-03T06:28:50.176Z,78.86
2023-03-03T06:31:17.938Z,78.67
2023-03-03T06:33:45.770Z,78.83
2023-03-03T06:36:13.566Z,78.76
2023-03-03T06:38:41.424Z,78.63
2023-03-03T06:41:10.865Z,78.74
2023-03-03T06:43:38.984Z,78.77
2023-03-03T06:46:07.302Z,78.35
2023-03-03T06:48:35.246Z,78.28
2023-03-03T06:51:04.722Z,78.50
2023-03-03T06:53:43.864Z,79.07
2023-03-03T06:56:13.455Z,78.91
2023-03-03T06:58:41.731Z,79.41
2023-03-03T07:01:16.369Z,79.41
2023-03-03T07:03:44.801Z,79.38
2023-03-03T07:06:20.145Z,77.54
2023-03-03T07:08:47.920Z,77.80
2023-03-03T07:11:27.541Z,77.51
2023-03-03T07:13:56.395Z,77.00
2023-03-03T07:16:27.611Z,76.85
2023-03-03T07:18:57.224Z,76.99
2023-03-03T07:21:35.541Z,77.09
2023-03-03T07:24:25.414Z,76.67
2023-03-03T07:26:56.733Z,76.64
2023-03-03T07:29:26.862Z,76.45
2023-03-03T07:31:56.803Z,76.75
2023-03-03T07:34:25.669Z,76.68
2023-03-03T07:37:17.286Z,76.66
2023-03-03T07:39:46.848Z,76.60
2023-03-03T07:42:23.336Z,76.50
2023-03-03T07:44:52.536Z,76.03
2023-03-03T07:47:22.340Z,75.71
2023-03-03T07:49:51.025Z,75.96
2023-03-03T07:52:25.891Z,76.11
2023-03-03T07:54:54.328Z,75.83
2023-03-03T07:57:26.028Z,76.13
2023-03-03T07:59:56.124Z,75.95
2023-03-03T08:02:48.680Z,75.45
2023-03-03T08:05:31.750Z,75.04
2023-03-03T08:08:23.800Z,75.02
2023-03-03T08:10:52.272Z,74.88
2023-03-03T08:13:22.846Z,75.28
2023-03-03T08:15:52.181Z,75.21
2023-03-03T08:18:30.434Z,74.90
2023-03-03T08:21:00.086Z,74.64
2023-03-03T08:23:28.400Z,74.37
2023-03-03T08:25:56.331Z,74.03
2023-03-03T08:28:25.548Z,74.40
2023-03-03T08:31:05.507Z,74.04
2023-03-03T08:33:33.794Z,73.96
2023-03-03T08:36:02.232Z,73.54
2023-03-03T08:38:30.066Z,72.98
2023-03-03T08:40:57.971Z,73.17
2023-03-03T08:43:27.161Z,73.10
2023-03-03T08:45:56.249Z,72.37
2023-03-03T08:48:24.039Z,71.87
2023-03-03T08:50:51.862Z,72.84
2023-03-03T08:53:20.308Z,72.28
2023-03-03T08:55:48.372Z,72.63
2023-03-03T08:58:18.684Z,72.90
2023-03-03T09:00:50.619Z,72.85
2023-03-03T09:03:19.057Z,73.06
2023-03-03T09:05:46.855Z,72.50
2023-03-03T09:08:14.667Z,72.84
2023-03-03T09:10:42.446Z,72.66
2023-03-03T09:13:15.622Z,71.70
2023-03-03T09:15:43.643Z,70.51
2023-03-03T09:18:17.603Z,69.21
2023-03-03T09:20:46.863Z,68.69
2023-03-03T09:23:31.017Z,67.64
2023-03-03T09:25:59.585Z,66.80
2023-03-03T09:28:28.746Z,66.32
2023-03-03T09:31:00.143Z,65.48
2023-03-03T09:33:38.256Z,64.22
2023-03-03T09:36:16.468Z,63.37
2023-03-03T09:38:46.100Z,62.88
2023-03-03T09:41:46.324Z,61.69
2023-03-03T09:44:23.764Z,61.42
2023-03-03T09:47:04.966Z,60.45
2023-03-03T09:49:35.837Z,59.72
2023-03-03T09:52:20.908Z,58.91
2023-03-03T09:54:55.362Z,59.31
2023-03-03T09:57:26.869Z,59.42
2023-03-03T10:00:12.273Z,58.98
2023-03-03T10:02:48.514Z,58.26
2023-03-03T10:05:27.210Z,58.08
2023-03-03T10:08:04.911Z,58.30
2023-03-03T10:10:54.854Z,58.03
2023-03-03T10:13:31.298Z,57.22
2023-03-03T10:16:18.203Z,58.18
2023-03-03T10:18:50.911Z,58.13
2023-03-03T10:21:25.251Z,58.35
2023-03-03T10:23:59.320Z,57.22
2023-03-03T10:27:09.744Z,57.68
2023-03-03T10:29:47.559Z,58.08
2023-03-03T10:32:32.441Z,57.22
2023-03-03T10:35:27.927Z,56.49
2023-03-03T10:38:07.703Z,56.87
2023-03-03T10:40:39.580Z,56.12
2023-03-03T10:43:32.111Z,55.62
2023-03-03T10:46:29.926Z,56.41
2023-03-03T10:49:21.612Z,55.47
2023-03-03T10:52:12.747Z,54.03
2023-03-03T10:54:54.921Z,54.07
2023-03-03T10:57:27.605Z,55.65
2023-03-03T11:00:06.352Z,55.82
2023-03-03T11:02:39.108Z,55.49
2023-03-03T11:05:28.450Z,54.56
2023-03-03T11:07:59.309Z,54.24
2023-03-03T11:10:48.751Z,54.52
2023-03-03T11:13:24.056Z,55.34
2023-03-03T11:16:00.917Z,54.74
2023-03-03T11:18:36.681Z,53.74
2023-03-03T11:21:12.825Z,54.52
2023-03-03T11:23:51.159Z,54.38
2023-03-03T11:26:29.397Z,54.35
2023-03-03T11:29:12.522Z,53.68
2023-03-03T11:31:45.284Z,54.37
2023-03-03T11:34:21.568Z,53.60
2023-03-03T11:36:52.166Z,53.31
2023-03-03T11:39:22.351Z,53.26
2023-03-03T11:42:02.785Z,53.06
2023-03-03T11:44:33.317Z,53.64
2023-03-03T11:47:04.540Z,53.26
2023-03-03T11:49:38.615Z,53.12
2023-03-03T11:52:20.954Z,52.67
2023-03-03T11:54:53.472Z,52.78
2023-03-03T11:57:27.815Z,53.32
2023-03-03T12:00:01.604Z,52.63
2023-03-03T12:02:44.257Z,52.31
2023-03-03T12:05:16.538Z,51.96
2023-03-03T12:07:48.710Z,51.93
2023-03-03T12:10:24.085Z,51.31
2023-03-03T12:12:59.689Z,51.47
2023-03-03T12:15:32.197Z,52.19
2023-03-03T12:18:12.055Z,50.64
2023-03-03T12:20:48.618Z,51.21
2023-03-03T12:23:28.217Z,51.00
2023-03-03T12:26:00.877Z,50.59
2023-03-03T12:28:34.336Z,51.02
2023-03-03T12:31:16.560Z,51.36
2023-03-03T12:33:54.215Z,50.53
2023-03-03T12:36:51.993Z,50.67
2023-03-03T12:39:34.963Z,51.05
2023-03-03T12:42:11.941Z,51.21
2023-03-03T12:44:45.958Z,50.84
2023-03-03T12:47:19.906Z,49.76
2023-03-03T12:50:07.068Z,49.59
2023-03-03T12:52:41.820Z,51.57
2023-03-03T12:55:12.783Z,53.05
2023-03-03T12:57:45.980Z,52.69
2023-03-03T13:00:25.797Z,52.74
2023-03-03T13:03:02.314Z,52.77
2023-03-03T13:05:36.164Z,53.70
2023-03-03T13:08:29.535Z,54.08
2023-03-03T13:11:02.692Z,54.61
2023-03-03T13:13:37.770Z,54.23
2023-03-03T13:16:11.283Z,53.69
2023-03-03T13:18:50.114Z,52.91
2023-03-03T13:21:21.602Z,54.23
2023-03-03T13:23:53.206Z,53.62
2023-03-03T13:26:24.394Z,51.83
2023-03-03T13:29:00.889Z,51.17
2023-03-03T13:31:34.492Z,52.68
2023-03-03T13:34:03.334Z,52.55
2023-03-03T13:36:35.383Z,52.03
2023-03-03T13:39:09.388Z,50.89
2023-03-03T13:41:46.924Z,50.10
2023-03-03T13:44:22.500Z,50.14
2023-03-03T13:46:59.747Z,48.51
2023-03-03T13:49:36.116Z,48.57
2023-03-03T13:52:07.395Z,50.81
2023-03-03T13:55:05.650Z,53.22
2023-03-03T13:57:50.992Z,54.88
2023-03-03T14:00:28.336Z,56.17
2023-03-03T14:03:18.172Z,57.92
2023-03-03T14:05:47.064Z,57.72
2023-03-03T14:08:26.527Z,58.86
2023-03-03T14:11:06.682Z,59.87
2023-03-03T14:13:41.213Z,61.16
2023-03-03T14:16:13.870Z,61.94
2023-03-03T14:18:50.523Z,62.85
2023-03-03T14:21:22.313Z,64.03
2023-03-03T14:23:55.605Z,64.94
2023-03-03T14:26:23.990Z,64.49
2023-03-03T14:28:54.208Z,64.97
2023-03-03T14:31:25.465Z,65.67
2023-03-03T14:34:02.685Z,66.21
2023-03-03T14:36:34.156Z,66.58
2023-03-03T14:39:02.196Z,66.94
2023-03-03T14:41:40.543Z,67.55
2023-03-03T14:44:27.915Z,68.32
2023-03-03T14:47:07.023Z,68.36
2023-03-03T14:49:38.459Z,68.25
2023-03-03T14:52:20.084Z,68.84
2023-03-03T14:54:49.304Z,68.62
2023-03-03T14:57:19.320Z,68.93
2023-03-03T14:59:57.851Z,68.60
2023-03-03T15:02:30.872Z,68.30
2023-03-03T15:05:21.499Z,68.76
2023-03-03T15:07:52.993Z,68.79
2023-03-03T15:10:36.423Z,68.81
2023-03-03T15:13:14.145Z,68.75
2023-03-03T15:15:50.859Z,68.83
2023-03-03T15:18:19.090Z,69.48
2023-03-03T15:20:49.566Z,69.77
2023-03-03T15:23:33.112Z,70.05
2023-03-03T15:26:03.693Z,69.59
2023-03-03T15:28:41.366Z,69.94
2023-03-03T15:31:20.083Z,70.60
2023-03-03T15:33:56.506Z,70.94
2023-03-03T15:36:33.583Z,71.01
2023-03-03T15:39:05.137Z,71.20
2023-03-03T15:41:40.183Z,70.49
2023-03-03T15:44:15.975Z,70.57
2023-03-03T15:46:55.391Z,70.66
2023-03-03T15:49:38.048Z,70.53
2023-03-03T15:52:22.937Z,70.59
2023-03-03T15:55:02.661Z,70.99
2023-03-03T15:57:38.066Z,71.07
2023-03-03T16:00:27.319Z,71.41
2023-03-03T16:02:58.906Z,71.45
2023-03-03T16:05:29.689Z,71.13
2023-03-03T16:08:05.168Z,71.67
2023-03-03T16:10:41.376Z,71.47
2023-03-03T16:13:53.432Z,71.34
2023-03-03T16:16:27.550Z,71.64
2023-03-03T16:19:05.959Z,71.20
2023-03-03T16:21:49.838Z,71.66
2023-03-03T16:24:27.389Z,71.49
2023-03-03T16:27:01.167Z,71.67
2023-03-03T16:29:39.653Z,72.27
2023-03-03T16:32:13.461Z,71.86
2023-03-03T16:34:46.745Z,71.91
2023-03-03T16:37:20.213Z,72.45
2023-03-03T16:39:56.511Z,72.65
2023-03-03T16:42:29.914Z,72.45
2023-03-03T16:45:06.093Z,72.05
2023-03-03T16:47:44.928Z,72.71
2023-03-03T16:50:22.193Z,72.82
2023-03-03T16:52:56.657Z,72.81
2023-03-03T16:55:29.992Z,72.95
2023-03-03T16:58:06.895Z,73.31
2023-03-03T17:00:40.733Z,73.38
2023-03-03T17:03:41.783Z,73.48
2023-03-03T17:06:17.345Z,73.57
2023-03-03T17:09:03.797Z,73.76
2023-03-03T17:11:42.101Z,73.68
2023-03-03T17:14:26.041Z,73.52
2023-03-03T17:17:05.125Z,73.75
2023-03-03T17:19:46.237Z,73.64
2023-03-03T17:22:23.422Z,73.96
2023-03-03T17:25:04.741Z,74.08
2023-03-03T17:27:43.526Z,74.61
2023-03-03T17:30:17.158Z,74.79
2023-03-03T17:32:57.393Z,73.99
2023-03-03T17:35:40.294Z,74.32
2023-03-03T17:38:15.224Z,74.66
2023-03-03T17:40:51.789Z,74.91
2023-03-03T17:43:23.752Z,75.16
2023-03-03T17:45:57.838Z,74.62
2023-03-03T17:48:53.959Z,74.38
2023-03-03T17:51:52.116Z,74.48
2023-03-03T17:54:31.094Z,75.13
2023-03-03T17:57:12.184Z,75.34
2023-03-03T17:59:58.051Z,75.66
2023-03-03T18:02:43.344Z,75.63
2023-03-03T18:05:35.010Z,75.43
2023-03-03T18:08:27.708Z,75.78
2023-03-03T18:11:16.775Z,75.60
2023-03-03T18:14:13.546Z,75.02
2023-03-03T18:16:56.098Z,74.78
2023-03-03T18:19:29.794Z,75.43
2023-03-03T18:22:01.500Z,75.66
2023-03-03T18:24:40.718Z,76.12
2023-03-03T18:27:31.738Z,75.70
2023-03-03T18:30:24.730Z,75.72
2023-03-03T18:33:09.870Z,75.40
2023-03-03T18:35:39.242Z,75.46
2023-03-03T18:38:37.734Z,75.74
2023-03-03T18:41:06.446Z,75.27
2023-03-03T18:43:54.695Z,75.04
2023-03-03T18:46:55.507Z,75.58
2023-03-03T18:50:06.219Z,74.90
2023-03-03T18:52:36.383Z,75.35
2023-03-03T18:55:24.532Z,74.83
2023-03-03T18:58:29.362Z,74.90
2023-03-03T19:01:01.416Z,74.55
2023-03-03T19:03:33.921Z,74.99
2023-03-03T19:06:05.199Z,75.04
2023-03-03T19:08:47.682Z,75.50
2023-03-03T19:11:35.375Z,75.52
2023-03-03T19:14:35.807Z,74.94
2023-03-03T19:17:49.356Z,74.64
2023-03-03T19:20:18.309Z,74.61
2023-03-03T19:22:50.335Z,74.49
2023-03-03T19:25:22.817Z,74.87
2023-03-03T19:28:01.201Z,74.81
2023-03-03T19:30:54.337Z,74.95
2023-03-03T19:33:35.514Z,75.50
2023-03-03T19:36:09.339Z,75.40
2023-03-03T19:38:45.572Z,76.05
2023-03-03T19:41:23.628Z,76.15
2023-03-03T19:44:02.554Z,75.93
2023-03-03T19:46:40.734Z,76.38
2023-03-03T19:49:17.293Z,76.29
2023-03-03T19:51:51.124Z,76.75
2023-03-03T19:54:32.165Z,76.80
2023-03-03T19:57:01.989Z,76.77
2023-03-03T19:59:35.414Z,76.61
2023-03-03T20:02:35.781Z,76.64
2023-03-03T20:05:37.979Z,76.63
2023-03-03T20:08:11.457Z,76.81
2023-03-03T20:10:46.579Z,76.71
2023-03-03T20:13:28.479Z,76.99
2023-03-03T20:16:05.896Z,76.94
2023-03-03T20:18:50.157Z,77.01
2023-03-03T20:21:27.777Z,76.61
2023-03-03T20:24:06.340Z,76.87
2023-03-03T20:26:42.870Z,76.96
2023-03-03T20:29:34.172Z,76.56
2023-03-03T20:32:07.104Z,76.39
2023-03-03T20:34:40.399Z,76.24
2023-03-03T20:37:12.476Z,76.27
2023-03-03T20:39:49.374Z,76.16
2023-03-03T20:42:27.647Z,75.96
2023-03-03T20:45:06.589Z,75.78
2023-03-03T20:47:41.308Z,75.90
2023-03-03T20:50:15.571Z,75.89
2023-03-03T20:52:54.702Z,75.67
2023-03-03T20:55:27.772Z,75.23
2023-03-03T20:58:03.703Z,75.22
2023-03-03T21:00:34.181Z,74.83
2023-03-03T21:03:10.005Z,74.95
2023-03-03T21:05:56.198Z,75.10
2023-03-03T21:08:41.660Z,75.34
2023-03-03T21:11:09.449Z,75.16
2023-03-03T21:13:41.409Z,75.20
2023-03-03T21:16:13.343Z,75.15
2023-03-03T21:18:41.270Z,75.14
2023-03-03T21:21:09.618Z,74.85
2023-03-03T21:23:37.730Z,74.60
2023-03-03T21:26:05.794Z,75.05
2023-03-03T21:28:35.087Z,74.85
2023-03-03T21:31:10.654Z,74.95
2023-03-03T21:33:43.445Z,74.92
2023-03-03T21:36:11.846Z,74.59
2023-03-03T21:38:40.280Z,75.03
2023-03-03T21:41:09.207Z,75.22
2023-03-03T21:43:38.047Z,75.31
2023-03-03T21:46:07.562Z,75.02
2023-03-03T21:48:35.606Z,75.42
2023-03-03T21:51:03.495Z,75.20
2023-03-03T21:53:31.377Z,75.18
2023-03-03T21:55:59.363Z,75.35
2023-03-03T21:58:27.168Z,75.13
2023-03-03T22:00:55.020Z,75.24
2023-03-03T22:03:25.877Z,75.69
2023-03-03T22:05:54.773Z,75.48
2023-03-03T22:08:23.643Z,75.55
2023-03-03T22:10:55.859Z,75.15
2023-03-03T22:13:27.940Z,75.10
2023-03-03T22:15:56.222Z,75.41
2023-03-03T22:18:25.348Z,75.29
2023-03-03T22:20:53.306Z,75.30
2023-03-03T22:23:21.073Z,75.37
2023-03-03T22:25:48.947Z,75.21
2023-03-03T22:28:17.465Z,75.28
2023-03-03T22:30:45.264Z,75.34
2023-03-03T22:33:13.114Z,75.41
2023-03-03T22:35:42.673Z,75.07
2023-03-03T22:38:10.448Z,75.03
2023-03-03T22:40:38.249Z,75.22
2023-03-03T22:43:06.508Z,74.71
2023-03-03T22:45:34.963Z,74.74
2023-03-03T22:48:02.732Z,74.70
2023-03-03T22:50:30.925Z,74.89
2023-03-03T22:53:00.137Z,74.75
2023-03-03T22:55:29.268Z,74.43
2023-03-03T22:57:57.261Z,73.92
2023-03-03T23:00:25.104Z,73.69
2023-03-03T23:02:52.885Z,73.64
2023-03-03T23:05:21.037Z,73.66
2023-03-03T23:07:49.096Z,74.11
2023-03-03T23:10:18.509Z,73.94
2023-03-03T23:12:46.413Z,74.18
2023-03-03T23:15:14.481Z,73.99
2023-03-03T23:17:42.787Z,73.96
2023-03-03T23:20:12.707Z,74.01
2023-03-03T23:22:40.699Z,73.73
2023-03-03T23:25:09.678Z,73.93
2023-03-03T23:28:03.502Z,73.95
2023-03-03T23:30:31.315Z,74.08
2023-03-03T23:32:59.114Z,74.25
2023-03-03T23:35:27.012Z,73.91
2023-03-03T23:37:54.873Z,73.75
2023-03-03T23:40:22.689Z,74.03
2023-03-03T23:42:50.508Z,73.95
2023-03-03T23:45:19.905Z,74.13
2023-03-03T23:47:47.876Z,74.50
2023-03-03T23:50:15.827Z,74.50
2023-03-03T23:52:43.600Z,74.48
2023-03-03T23:55:12.074Z,74.50
2023-03-03T23:57:39.883Z,74.34
